Time;durP1;ratioP1;P1;durP2;ratioP2;P2;SDS_P1;SDS_P2;PMS_P1;PMS_P2;Temp;Humidity;BMP_temperature;BMP_pressure;BME280_temperature;BME280_humidity;BME280_pressure;Samples;Min_cycle;Max_cycle;Signal;HPM_P1;HPM_P2
2023/09/04 04:57:29;;;;;;;;;;;;;;;15.33;67.93;102065.46;89906;1291;65806;-89
2023/09/04 05:00:55;;;;;;;;;;;;;;;15.46;67.86;102070.67;106012;1294;71472;-87
2023/09/04 05:04:21;;;;;;;;;;;;;;;15.55;67.87;102079.77;106074;1294;58988;-87
2023/09/04 05:07:47;;;;;;;;;;;;;;;15.59;67.85;102085.84;106005;1291;58990;-87
2023/09/04 05:11:16;;;;;;;;;;;;;;;15.60;67.78;102084.25;106047;1289;74098;-88
2023/09/04 05:14:42;;;;;;;;;;;;;;;15.65;67.94;102078.94;106149;1290;68624;-87
2023/09/04 05:18:08;;;;;;;;;;;;;;;15.76;68.01;102081.91;106111;1290;71416;-87
2023/09/04 05:21:35;;;;;;;;;;;;;;;15.92;68.06;102080.30;105417;1299;59018;-87
2023/09/04 05:25:01;;;;;;;;;;;;;;;16.10;68.00;102085.58;105367;1302;59243;-87
2023/09/04 05:28:28;;;;;;;;;;;;;;;16.29;67.98;102094.15;104919;1305;73326;-87
2023/09/04 05:31:54;;;;;;;;;;;;;;;16.44;67.92;102101.73;104746;1307;68611;-88
2023/09/04 05:35:21;;;;;;;;;;;;;;;16.59;67.87;102100.80;104829;1306;70326;-88
2023/09/04 05:38:47;;;;;;;;;;;;;;;16.73;67.82;102102.80;104877;1305;59148;-88
2023/09/04 05:42:13;;;;;;;;;;;;;;;16.90;67.83;102104.95;104930;1305;59445;-87
2023/09/04 05:45:40;;;;;;;;;;;;;;;16.99;67.86;102094.67;104737;1307;74355;-87
2023/09/04 05:49:06;;;;;;;;;;;;;;;17.09;67.84;102101.61;104884;1305;67331;-88
2023/09/04 05:52:34;;;;;;;;;;;;;;;17.43;68.00;102094.46;104867;1305;73013;-88
2023/09/04 05:56:00;;;;;;;;;;;;;;;17.75;67.77;102086.11;104809;1306;59581;-88
2023/09/04 05:59:27;;;;;;;;;;;;;;;18.03;67.71;102088.10;105321;1301;59382;-88
2023/09/04 06:02:54;;;;;;;;;;;;;;;18.26;67.45;102094.14;105406;1298;74492;-89
2023/09/04 06:06:19;;;;;;;;;;;;;;;18.60;67.65;102098.73;106097;1291;67463;-88
2023/09/04 06:09:46;;;;;;;;;;;;;;;18.90;67.39;102095.13;105906;1291;217509;-88
2023/09/04 06:13:14;;;;;;;;;;;;;;;19.32;67.32;102100.59;105986;1291;58971;-88
2023/09/04 06:16:40;;;;;;;;;;;;;;;20.12;67.25;102102.50;106088;1291;59844;-88
2023/09/04 06:20:07;;;;;;;;;;;;;;;21.29;67.00;102100.91;106063;1290;74462;-88
2023/09/04 06:23:33;;;;;;;;;;;;;;;22.44;66.60;102102.82;105371;1300;67256;-88
2023/09/04 06:27:00;;;;;;;;;;;;;;;23.45;66.15;102102.09;105221;1300;70483;-88
2023/09/04 06:30:26;;;;;;;;;;;;;;;24.22;66.04;102098.71;105232;1302;59097;-88
2023/09/04 06:33:53;;;;;;;;;;;;;;;24.87;65.58;102101.59;105229;1301;59065;-88
2023/09/04 06:37:18;;;;;;;;;;;;;;;25.22;65.27;102097.74;105179;1302;74477;-88
2023/09/04 06:40:45;;;;;;;;;;;;;;;25.14;65.23;102101.37;105211;1301;68540;-88
2023/09/04 06:44:11;;;;;;;;;;;;;;;25.86;65.25;102103.38;105223;1301;71488;-88
2023/09/04 06:47:38;;;;;;;;;;;;;;;26.99;64.45;102103.25;105227;1301;59769;-89
2023/09/04 06:51:22;;;;;;;;;;;;;;;;;;;;;
2023/09/04 06:54:39;;;;;;;;;;;;;;;28.52;63.93;102111.92;105241;1300;74395;-88
2023/09/04 06:58:06;;;;;;;;;;;;;;;29.44;63.54;102103.89;105240;1300;69034;-89
2023/09/04 07:01:33;;;;;;;;;;;;;;;30.32;62.99;102099.64;105314;1299;72033;-89
2023/09/04 07:04:59;;;;;;;;;;;;;;;31.28;62.45;102105.30;105710;1293;59001;-89
2023/09/04 07:08:25;;;;;;;;;;;;;;;32.00;61.78;102106.51;105638;1294;59018;-88
2023/09/04 07:11:51;;;;;;;;;;;;;;;32.03;61.92;102115.55;100957;1294;76375;-88
2023/09/04 07:15:00;;;;;;;;;;;;;;;32.51;62.13;102126.70;105698;1294;72556;-88
2023/09/04 07:18:26;;;;;;;;;;;;;;;33.53;61.48;102137.77;105714;1293;59291;-89
2023/09/04 07:21:36;;;;;;;;;;;;;;;34.60;60.98;102137.04;105236;1300;59527;-89
2023/09/04 07:24:23;;;;;;;;;;;;;;;35.55;60.35;102137.44;105205;1300;74528;-88
2023/09/04 07:27:28;;;;;;;;;;;;;;;35.77;59.62;102136.31;105167;1300;67441;-88
2023/09/04 07:30:23;;;;;;;;;;;;;;;35.74;60.20;102136.65;105178;1300;71467;-88
2023/09/04 07:33:10;;;;;;;;;;;;;;;35.78;59.60;102129.17;105368;1298;59419;-88
2023/09/04 07:35:55;;;;;;;;;;;;;;;35.18;59.42;102132.57;105540;1296;58563;-88
2023/09/04 07:38:43;;;;;;;;;;;;;;;34.27;59.58;102132.11;105420;1297;73354;-88
2023/09/04 07:41:50;;;;;;;;;;;;;;;33.77;59.86;102136.02;105376;1300;68353;-88
2023/09/04 07:44:56;;;;;;;;;;;;;;;33.55;58.91;102137.63;105485;1296;71178;-88
2023/09/04 07:48:02;;;;;;;;;;;;;;;33.12;58.81;102139.79;105522;1297;59381;-88
2023/09/04 07:51:08;;;;;;;;;;;;;;;32.83;57.70;102133.08;105506;1297;59976;-88
2023/09/04 07:54:34;;;;;;;;;;;;;;;34.17;57.35;102121.86;105539;1296;74581;-88
2023/09/04 07:58:00;;;;;;;;;;;;;;;35.80;55.66;102124.11;105618;1291;67508;-88
2023/09/04 08:00:47;;;;;;;;;;;;;;;37.06;54.76;102127.89;105919;1291;71420;-88
2023/09/04 08:03:53;;;;;;;;;;;;;;;37.87;53.62;102126.75;105995;1290;59319;-86
2023/09/04 08:06:41;;;;;;;;;;;;;;;38.70;53.94;102133.04;105963;1291;59918;-86
2023/09/04 08:10:07;;;;;;;;;;;;;;;39.84;53.36;102131.81;105783;1295;73124;-86
2023/09/04 08:12:55;;;;;;;;;;;;;;;40.47;52.77;102131.69;106016;1294;68162;-86
2023/09/04 08:16:01;;;;;;;;;;;;;;;40.88;52.41;102127.08;105963;1290;71289;-86
2023/09/04 08:18:47;;;;;;;;;;;;;;;40.78;51.39;102126.60;105846;1291;59119;-86
2023/09/04 08:21:55;;;;;;;;;;;;;;;40.16;50.95;102130.86;106000;1291;60414;-86
2023/09/04 08:24:50;;;;;;;;;;;;;;;39.89;51.01;102128.91;106023;1291;74374;-86
2023/09/04 08:27:38;;;;;;;;;;;;;;;39.51;50.50;102128.42;106046;1291;67467;-86
2023/09/04 08:30:24;;;;;;;;;;;;;;;39.13;50.95;102137.86;105937;1290;71384;-86
2023/09/04 08:33:10;;;;;;;;;;;;;;;39.68;50.31;102141.79;105974;1290;59060;-86
2023/09/04 08:35:56;;;;;;;;;;;;;;;39.00;49.35;102141.86;105855;1291;59979;-85
2023/09/04 08:38:42;;;;;;;;;;;;;;;37.30;49.62;102141.17;105938;1291;74583;-85
2023/09/04 08:41:29;;;;;;;;;;;;;;;35.77;49.71;102137.50;105932;1290;67889;-85
2023/09/04 08:44:16;;;;;;;;;;;;;;;34.16;49.38;102128.23;105893;1294;71379;-85
2023/09/04 08:47:03;;;;;;;;;;;;;;;32.92;49.20;102127.81;105938;1292;59389;-85
2023/09/04 08:49:52;;;;;;;;;;;;;;;31.94;49.05;102132.36;105892;1290;60321;-85
2023/09/04 08:52:41;;;;;;;;;;;;;;;30.95;48.71;102127.02;105991;1291;74438;-85
2023/09/04 08:55:28;;;;;;;;;;;;;;;30.17;48.64;102126.90;105966;1291;68602;-87
2023/09/04 08:58:14;;;;;;;;;;;;;;;29.53;48.34;102124.92;105912;1290;72263;-87
2023/09/04 09:01:03;;;;;;;;;;;;;;;28.90;48.14;102122.45;105948;1291;59387;-87
2023/09/04 09:03:49;;;;;;;;;;;;;;;28.38;48.04;102122.50;105846;1290;59041;-87
2023/09/04 09:06:39;;;;;;;;;;;;;;;27.99;48.06;102121.34;105877;1290;74682;-86
2023/09/04 09:09:45;;;;;;;;;;;;;;;27.65;47.98;102113.45;106034;1292;67507;-86
2023/09/04 09:12:45;;;;;;;;;;;;;;;27.23;47.84;102112.73;106017;1291;71287;-87
2023/09/04 09:15:32;;;;;;;;;;;;;;;26.97;47.85;102111.73;105957;1291;59260;-86
2023/09/04 09:18:51;;;;;;;;;;;;;;;26.83;47.71;102106.19;105969;1291;59973;-87
2023/09/04 09:21:37;;;;;;;;;;;;;;;26.58;47.73;102103.98;105955;1291;73730;-86
2023/09/04 09:24:23;;;;;;;;;;;;;;;26.23;47.51;102100.73;105975;1292;68177;-87
2023/09/04 09:27:11;;;;;;;;;;;;;;;25.79;47.47;102102.77;106012;1291;72375;-86
2023/09/04 09:30:01;;;;;;;;;;;;;;;25.51;47.85;102100.03;106040;1291;59343;-86
2023/09/04 09:33:08;;;;;;;;;;;;;;;25.49;47.92;102101.06;105961;1291;59180;-86
2023/09/04 09:36:33;;;;;;;;;;;;;;;25.42;47.70;102102.14;105870;1293;74399;-87
2023/09/04 09:39:40;;;;;;;;;;;;;;;25.10;47.60;102104.27;106016;1291;68316;-86
2023/09/04 09:42:46;;;;;;;;;;;;;;;24.92;47.96;102103.94;105971;1295;71245;-86
2023/09/04 09:46:00;;;;;;;;;;;;;;;24.74;47.80;102105.23;106012;1291;58931;-86
2023/09/04 09:49:06;;;;;;;;;;;;;;;24.57;47.96;102102.44;105983;1291;59907;-86
2023/09/04 09:52:19;;;;;;;;;;;;;;;24.59;48.25;102106.54;105818;1291;73469;-86
2023/09/04 09:55:44;;;;;;;;;;;;;;;24.69;48.21;102103.23;105990;1293;68122;-86
2023/09/04 09:58:32;;;;;;;;;;;;;;;24.65;48.30;102098.65;105692;1296;72594;-86
2023/09/04 10:01:23;;;;;;;;;;;;;;;24.63;48.26;102098.58;105557;1297;59762;-85
2023/09/04 10:04:17;;;;;;;;;;;;;;;24.55;48.27;102101.64;105613;1296;59011;-86
2023/09/04 10:07:04;;;;;;;;;;;;;;;24.45;48.15;102101.31;105558;1294;73192;-86
2023/09/04 10:09:59;;;;;;;;;;;;;;;24.38;48.40;102102.17;105648;1294;67422;-86
2023/09/04 10:13:23;;;;;;;;;;;;;;;24.34;48.49;102095.69;105682;1294;71324;-86
2023/09/04 10:16:12;;;;;;;;;;;;;;;24.37;48.69;102099.60;105634;1299;59565;-86
2023/09/04 10:19:17;;;;;;;;;;;;;;;24.43;48.62;102103.85;105734;1293;59745;-86
2023/09/04 10:22:09;;;;;;;;;;;;;;;24.40;48.46;102103.84;105802;1294;73340;-86
2023/09/04 10:25:04;;;;;;;;;;;;;;;24.39;48.70;102107.95;105721;1293;68405;-86
2023/09/04 10:28:00;;;;;;;;;;;;;;;24.40;48.81;102106.84;105755;1294;71241;-86
2023/09/04 10:30:49;;;;;;;;;;;;;;;24.40;48.85;102108.77;105749;1296;59150;-86
2023/09/04 10:33:38;;;;;;;;;;;;;;;24.26;48.73;102101.70;105669;1294;60048;-86
2023/09/04 10:36:25;;;;;;;;;;;;;;;24.12;48.96;102099.90;105670;1297;74356;-86
2023/09/04 10:39:11;;;;;;;;;;;;;;;24.09;48.99;102097.05;105725;1293;68616;-86
2023/09/04 10:42:17;;;;;;;;;;;;;;;24.03;49.10;102096.63;105725;1293;71302;-86
2023/09/04 10:45:16;;;;;;;;;;;;;;;24.00;49.28;102096.08;106014;1291;59118;-86
2023/09/04 10:48:37;;;;;;;;;;;;;;;24.00;49.39;102097.14;105954;1292;59206;-86
2023/09/04 10:51:49;;;;;;;;;;;;;;;23.97;49.34;102090.93;106035;1290;73431;-86
2023/09/04 10:54:36;;;;;;;;;;;;;;;23.90;49.47;102090.60;105324;1300;67885;-86
2023/09/04 10:57:41;;;;;;;;;;;;;;;23.91;49.71;102084.23;105226;1299;71377;-86
2023/09/04 11:09:11;;;;;;;;;;;;;;;24.11;49.54;102081.27;103789;1289;65530;-90
2023/09/04 11:12:40;;;;;;;;;;;;;;;24.27;49.66;102080.70;106293;1288;71948;-88
2023/09/04 11:16:06;;;;;;;;;;;;;;;24.38;49.58;102079.41;106139;1288;58850;-89
2023/09/04 11:19:35;;;;;;;;;;;;;;;24.44;49.67;102077.90;106226;1288;59990;-88
2023/09/04 11:22:48;;;;;;;;;;;;;;;24.45;49.80;102079.39;106172;1288;75047;-86
2023/09/04 11:25:35;;;;;;;;;;;;;;;24.51;49.82;102081.20;106058;1288;67475;-86
2023/09/04 11:28:26;;;;;;;;;;;;;;;24.56;49.95;102079.53;105999;1290;71352;-86
2023/09/04 11:31:12;;;;;;;;;;;;;;;24.62;49.80;102080.48;106053;1289;59143;-86
2023/09/04 11:33:59;;;;;;;;;;;;;;;24.66;49.92;102084.85;106091;1289;59444;-86
2023/09/04 11:36:46;;;;;;;;;;;;;;;24.72;50.00;102086.80;106026;1288;74127;-86
2023/09/04 11:39:33;;;;;;;;;;;;;;;24.79;50.15;102082.08;106076;1288;69317;-86
2023/09/04 11:42:31;;;;;;;;;;;;;;;24.84;50.07;102074.77;106061;1288;71286;-86
2023/09/04 11:45:17;;;;;;;;;;;;;;;24.84;50.05;102068.23;106075;1288;59819;-86
2023/09/04 11:48:04;;;;;;;;;;;;;;;24.83;50.02;102067.90;106164;1288;61102;-86
2023/09/04 11:50:55;;;;;;;;;;;;;;;24.85;50.12;102063.73;106031;1291;73381;-86
2023/09/04 11:53:45;;;;;;;;;;;;;;;24.86;50.22;102065.30;106058;1289;67447;-86
2023/09/04 11:56:36;;;;;;;;;;;;;;;24.82;50.12;102060.77;106097;1289;71498;-86
2023/09/04 11:59:22;;;;;;;;;;;;;;;24.81;50.29;102058.48;106141;1289;58958;-86
2023/09/04 12:02:12;;;;;;;;;;;;;;;24.77;50.31;102060.66;106100;1289;58985;-86
2023/09/04 12:05:00;;;;;;;;;;;;;;;24.70;50.40;102056.91;105947;1288;73512;-86
2023/09/04 12:07:47;;;;;;;;;;;;;;;24.64;50.35;102048.61;106102;1288;68448;-86
2023/09/04 12:10:34;;;;;;;;;;;;;;;24.53;50.29;102050.08;105928;1289;139326;-86
2023/09/04 12:13:31;;;;;;;;;;;;;;;24.46;50.48;102042.19;104115;1289;5167824;-86
2023/09/04 12:16:17;;;;;;;;;;;;;;;24.39;50.61;102045.20;106102;1289;62994;-86
2023/09/04 12:19:08;;;;;;;;;;;;;;;24.34;50.57;102043.33;106070;1289;59108;-86
2023/09/04 12:22:08;;;;;;;;;;;;;;;24.28;50.51;102040.14;106009;1291;73417;-86
2023/09/04 12:25:06;;;;;;;;;;;;;;;24.20;50.63;102044.02;106107;1291;67459;-85
2023/09/04 12:28:09;;;;;;;;;;;;;;;24.10;50.63;102039.75;106232;1289;72598;-86
2023/09/04 12:30:56;;;;;;;;;;;;;;;24.06;50.84;102039.59;106128;1289;58957;-86
2023/09/04 12:33:44;;;;;;;;;;;;;;;24.03;50.69;102038.88;106065;1290;58980;-86
2023/09/04 12:37:10;;;;;;;;;;;;;;;24.03;50.79;102037.46;106081;1289;74256;-86
2023/09/04 12:39:58;;;;;;;;;;;;;;;24.02;50.69;102034.00;106230;1288;68605;-85
2023/09/04 12:42:52;;;;;;;;;;;;;;;24.05;50.98;102026.23;106066;1289;71672;-86
2023/09/04 12:45:58;;;;;;;;;;;;;;;24.14;50.95;102023.33;106044;1290;58726;-85
2023/09/04 12:49:25;;;;;;;;;;;;;;;24.13;50.88;102022.70;105852;1293;59324;-86
2023/09/04 12:52:11;;;;;;;;;;;;;;;24.20;51.02;102024.27;105950;1292;74993;-85
2023/09/04 12:55:01;;;;;;;;;;;;;;;24.23;51.17;102020.94;105789;1292;70534;-85
2023/09/04 12:57:48;;;;;;;;;;;;;;;24.26;51.06;102021.35;105823;1293;72978;-86
2023/09/04 13:00:54;;;;;;;;;;;;;;;24.27;51.09;102017.77;105789;1294;60152;-86
2023/09/04 13:04:18;;;;;;;;;;;;;;;24.25;51.17;102013.09;105901;1292;60098;-86
2023/09/04 13:07:05;;;;;;;;;;;;;;;24.24;51.25;102012.81;105719;1292;73443;-86
2023/09/04 13:10:00;;;;;;;;;;;;;;;24.23;51.29;102005.42;105884;1292;68758;-86
2023/09/04 13:12:50;;;;;;;;;;;;;;;24.22;51.48;102001.98;105756;1293;72476;-86
2023/09/04 13:15:56;;;;;;;;;;;;;;;24.18;51.53;102003.39;105730;1293;59364;-87
2023/09/04 13:19:22;;;;;;;;;;;;;;;24.16;51.63;102002.48;105978;1289;58997;-86
2023/09/04 13:22:48;;;;;;;;;;;;;;;24.15;51.64;102002.48;106314;1288;74075;-87
2023/09/04 13:25:55;;;;;;;;;;;;;;;24.13;51.84;102006.99;106210;1288;68285;-86
2023/09/04 13:29:02;;;;;;;;;;;;;;;24.14;51.86;102007.15;106134;1288;71947;-87
2023/09/04 13:32:27;;;;;;;;;;;;;;;24.14;51.83;102006.60;106313;1288;58962;-87
2023/09/04 13:35:53;;;;;;;;;;;;;;;24.12;51.87;102000.88;106297;1288;59209;-87
2023/09/04 13:39:19;;;;;;;;;;;;;;;24.07;51.99;101997.07;106232;1288;73600;-87
2023/09/04 13:42:44;;;;;;;;;;;;;;;24.07;52.11;101992.14;106287;1288;68087;-87
2023/09/04 13:46:11;;;;;;;;;;;;;;;24.06;52.12;101995.73;106268;1288;71419;-87
2023/09/04 13:49:38;;;;;;;;;;;;;;;24.09;52.10;101998.21;106346;1288;59396;-87
2023/09/04 13:53:03;;;;;;;;;;;;;;;24.18;52.16;101996.01;106243;1288;59292;-87
2023/09/04 13:56:29;;;;;;;;;;;;;;;24.24;51.94;101991.67;106151;1288;73892;-87
2023/09/04 13:59:55;;;;;;;;;;;;;;;24.24;51.95;101985.13;106164;1288;68649;-87
2023/09/04 14:03:21;;;;;;;;;;;;;;;24.28;52.27;101989.00;106313;1288;71374;-87
2023/09/04 14:06:48;;;;;;;;;;;;;;;24.28;52.06;101988.81;106282;1288;58975;-87
2023/09/04 14:10:13;;;;;;;;;;;;;;;24.19;52.10;101984.52;106276;1288;58987;-87
2023/09/04 14:13:39;;;;;;;;;;;;;;;24.13;52.09;101981.29;106274;1289;73254;-87
2023/09/04 14:17:05;;;;;;;;;;;;;;;24.10;52.18;101981.06;106296;1288;67520;-86
2023/09/04 14:20:31;;;;;;;;;;;;;;;24.11;52.23;101976.79;106310;1288;72376;-87
2023/09/04 14:23:57;;;;;;;;;;;;;;;24.08;52.19;101980.15;106304;1288;59063;-87
2023/09/04 14:27:24;;;;;;;;;;;;;;;24.00;52.21;101979.27;106236;1289;59045;-87
2023/09/04 14:30:53;;;;;;;;;;;;;;;23.91;52.18;101976.23;106287;1288;74754;-87
2023/09/04 14:34:19;;;;;;;;;;;;;;;23.85;52.19;101978.70;106346;1288;67400;-87
2023/09/04 14:37:45;;;;;;;;;;;;;;;23.78;52.21;101976.02;106394;1288;72514;-87
2023/09/04 14:41:17;;;;;;;;;;;;;;;23.76;52.21;101974.71;106237;1288;59232;-87
2023/09/04 14:44:37;;;;;;;;;;;;;;;23.80;52.25;101976.30;106257;1289;59295;-87
2023/09/04 14:48:03;;;;;;;;;;;;;;;23.82;52.11;101979.88;106338;1288;73282;-87
2023/09/04 14:50:58;;;;;;;;;;;;;;;23.83;51.96;101987.56;105941;1293;69401;-87
2023/09/04 14:54:24;;;;;;;;;;;;;;;23.91;51.97;101989.10;105843;1293;71416;-87
2023/09/04 14:57:34;;;;;;;;;;;;;;;23.99;52.05;101988.17;105932;1293;59107;-87
2023/09/04 15:01:03;;;;;;;;;;;;;;;24.06;51.77;101980.94;105971;1291;59368;-87
2023/09/04 15:04:25;;;;;;;;;;;;;;;24.09;51.88;101975.69;106001;1292;74391;-88
2023/09/04 15:07:32;;;;;;;;;;;;;;;24.10;52.02;101972.59;105984;1293;67441;-87
2023/09/04 15:10:58;;;;;;;;;;;;;;;24.10;52.08;101974.38;105942;1293;71282;-86
2023/09/04 15:14:24;;;;;;;;;;;;;;;24.11;52.09;101973.61;106065;1292;59124;-87
2023/09/04 15:17:50;;;;;;;;;;;;;;;24.13;52.12;101966.50;106000;1293;60085;-87
2023/09/04 15:21:21;;;;;;;;;;;;;;;24.13;52.18;101962.08;106050;1290;73984;-87
2023/09/04 15:24:45;;;;;;;;;;;;;;;24.13;52.17;101965.09;106267;1288;67541;-87
2023/09/04 15:28:11;;;;;;;;;;;;;;;24.11;52.07;101975.23;106285;1288;72733;-87
2023/09/04 15:31:36;;;;;;;;;;;;;;;24.04;52.12;101976.81;106244;1289;59084;-87
2023/09/04 15:35:02;;;;;;;;;;;;;;;24.02;52.15;101976.55;106342;1288;60006;-87
2023/09/04 15:38:29;;;;;;;;;;;;;;;23.99;52.14;101972.80;106335;1289;74218;-87
2023/09/04 15:41:55;;;;;;;;;;;;;;;23.90;52.08;101968.19;106262;1289;67536;-87
2023/09/04 15:45:21;;;;;;;;;;;;;;;23.82;52.37;101970.21;106257;1288;72398;-87
2023/09/04 15:48:48;;;;;;;;;;;;;;;23.74;52.37;101972.89;106237;1289;58988;-87
2023/09/04 15:52:14;;;;;;;;;;;;;;;23.66;52.43;101978.19;106304;1288;59098;-87
2023/09/04 15:55:20;;;;;;;;;;;;;;;23.61;52.62;101978.45;106377;1288;74650;-87
2023/09/04 15:58:46;;;;;;;;;;;;;;;23.57;52.66;101983.58;106390;1289;68559;-87
2023/09/04 16:01:52;;;;;;;;;;;;;;;23.50;52.91;101980.35;106297;1288;71811;-87
2023/09/04 16:04:59;;;;;;;;;;;;;;;23.44;53.02;101979.42;106221;1288;59095;-87
2023/09/04 16:08:05;;;;;;;;;;;;;;;23.39;53.23;101978.08;104866;1294;178606;-87
2023/09/04 16:10:51;;;;;;;;;;;;;;;23.36;53.32;101977.91;106181;1289;72276;-87
2023/09/04 16:13:57;;;;;;;;;;;;;;;23.33;53.41;101977.36;106134;1291;67456;-87
2023/09/04 16:17:23;;;;;;;;;;;;;;;23.26;53.54;101981.19;106193;1289;71354;-86
2023/09/04 16:20:12;;;;;;;;;;;;;;;23.22;53.78;101978.04;106309;1288;59032;-87
2023/09/04 16:23:07;;;;;;;;;;;;;;;23.20;53.95;101977.25;106272;1289;59348;-87
2023/09/04 16:26:16;;;;;;;;;;;;;;;23.15;53.89;101976.07;106225;1291;74269;-87
2023/09/04 16:29:22;;;;;;;;;;;;;;;23.07;53.94;101966.59;106272;1289;67450;-87
2023/09/04 16:32:09;;;;;;;;;;;;;;;23.02;53.91;101967.89;106043;1294;71119;-87
2023/09/04 16:34:59;;;;;;;;;;;;;;;22.99;54.22;101960.98;106132;1290;59251;-86
2023/09/04 16:37:47;;;;;;;;;;;;;;;22.98;54.21;101962.11;106079;1290;58895;-86
2023/09/04 16:40:53;;;;;;;;;;;;;;;22.95;54.18;101957.65;106149;1288;73459;-87
2023/09/04 16:44:02;;;;;;;;;;;;;;;22.92;54.39;101954.64;106360;1289;69278;-87
2023/09/04 16:47:08;;;;;;;;;;;;;;;22.86;54.65;101950.90;106224;1289;72097;-87
2023/09/04 16:50:34;;;;;;;;;;;;;;;22.80;54.82;101949.75;106183;1291;59426;-88
2023/09/04 16:53:40;;;;;;;;;;;;;;;22.76;54.93;101955.52;106337;1289;59730;-87
2023/09/04 16:56:47;;;;;;;;;;;;;;;22.72;55.05;101959.40;106340;1288;74390;-87
2023/09/04 17:00:04;;;;;;;;;;;;;;;22.67;55.09;101963.15;106366;1288;66489;-87
2023/09/04 17:03:26;;;;;;;;;;;;;;;22.64;55.18;101964.70;106198;1288;72649;-87
2023/09/04 17:06:36;;;;;;;;;;;;;;;22.62;55.31;101964.29;106333;1289;58937;-87
2023/09/04 17:10:02;;;;;;;;;;;;;;;22.59;55.45;101967.77;106228;1289;58707;-87
2023/09/04 17:13:08;;;;;;;;;;;;;;;22.53;55.50;101971.19;106270;1289;73396;-87
2023/09/04 17:16:33;;;;;;;;;;;;;;;22.49;55.51;101971.02;106246;1288;67349;-87
2023/09/04 17:19:21;;;;;;;;;;;;;;;22.44;55.74;101967.15;106210;1289;72623;-87
2023/09/04 17:22:34;;;;;;;;;;;;;;;22.40;55.72;101965.43;106170;1289;59000;-87
2023/09/04 17:25:48;;;;;;;;;;;;;;;22.34;55.98;101968.52;106086;1288;59102;-87
2023/09/04 17:29:14;;;;;;;;;;;;;;;22.25;56.07;101961.70;106416;1288;73471;-87
2023/09/04 17:32:40;;;;;;;;;;;;;;;22.14;56.25;101958.52;106421;1289;68452;-89
2023/09/04 17:35:46;;;;;;;;;;;;;;;22.02;56.40;101957.42;106196;1288;72258;-88
2023/09/04 17:38:34;;;;;;;;;;;;;;;21.92;56.50;101954.83;106296;1288;59087;-88
2023/09/04 17:41:40;;;;;;;;;;;;;;;21.83;56.60;101952.77;106293;1289;59399;-87
2023/09/04 17:44:46;;;;;;;;;;;;;;;21.77;56.64;101955.48;106262;1291;74623;-89
2023/09/04 17:48:12;;;;;;;;;;;;;;;21.71;56.79;101957.13;106320;1289;67506;-90
2023/09/04 17:51:39;;;;;;;;;;;;;;;21.62;56.95;101957.35;106422;1288;70374;-90
2023/09/04 17:57:50;;;;;;;;;;;;;;;21.47;57.13;101957.75;106213;1290;59590;-90
2023/09/04 18:01:16;;;;;;;;;;;;;;;21.43;57.29;101958.43;106286;1289;75002;-90
2023/09/04 18:04:45;;;;;;;;;;;;;;;21.39;57.47;101961.23;106231;1290;67394;-90
2023/09/04 18:08:11;;;;;;;;;;;;;;;21.34;57.57;101961.77;105604;1297;71259;-89
2023/09/04 18:11:37;;;;;;;;;;;;;;;21.30;57.51;101959.52;105709;1296;59483;-91
2023/09/04 18:17:12;;;;;;;;;;;;;;;21.20;57.83;101953.92;106331;1288;74549;-89
2023/09/04 18:20:38;;;;;;;;;;;;;;;21.14;58.05;101959.94;106330;1289;67392;-90
2023/09/04 18:26:45;;;;;;;;;;;;;;;21.00;58.16;101963.81;106262;1289;59340;-89
2023/09/04 18:30:11;;;;;;;;;;;;;;;20.95;58.35;101971.17;106246;1289;59393;-90
2023/09/04 18:33:37;;;;;;;;;;;;;;;20.92;58.39;101975.67;105809;1294;74577;-89
2023/09/04 18:37:07;;;;;;;;;;;;;;;20.89;58.50;101978.08;105779;1294;68568;-90
2023/09/04 18:45:55;;;;;;;;;;;;;;;20.84;58.81;101990.02;106714;1287;79735;-94
2023/09/04 18:49:19;;;;;;;;;;;;;;;20.80;59.02;101991.72;106138;1290;73230;-90
2023/09/04 18:52:45;;;;;;;;;;;;;;;20.77;58.98;101993.27;106217;1291;68490;-87
2023/09/04 18:55:33;;;;;;;;;;;;;;;20.73;59.18;101996.56;106163;1291;72595;-85
2023/09/04 18:58:24;;;;;;;;;;;;;;;20.71;59.18;101997.33;106012;1291;60546;-85
2023/09/04 19:01:10;;;;;;;;;;;;;;;20.71;59.19;101998.93;106035;1290;59943;-85
2023/09/04 19:03:58;;;;;;;;;;;;;;;20.70;59.19;101994.55;105973;1291;73356;-85
2023/09/04 19:06:44;;;;;;;;;;;;;;;20.71;59.25;101994.89;106132;1291;68072;-85
2023/09/04 19:09:32;;;;;;;;;;;;;;;20.68;59.55;101994.80;105727;1294;288571;-85
2023/09/04 19:12:17;;;;;;;;;;;;;;;20.64;59.53;101997.26;106148;1291;59166;-85
2023/09/04 19:15:04;;;;;;;;;;;;;;;20.60;59.62;101996.34;105972;1291;59235;-85
2023/09/04 19:17:49;;;;;;;;;;;;;;;20.59;59.65;101991.64;106058;1291;74450;-85
2023/09/04 19:20:36;;;;;;;;;;;;;;;20.59;59.72;101989.73;106023;1291;68571;-86
2023/09/04 19:23:32;;;;;;;;;;;;;;;20.58;59.67;101990.63;106065;1291;73086;-85
2023/09/04 19:26:18;;;;;;;;;;;;;;;20.56;59.73;101990.69;105995;1291;59432;-85
2023/09/04 19:29:04;;;;;;;;;;;;;;;20.53;59.99;101992.39;105979;1291;59481;-85
2023/09/04 19:31:50;;;;;;;;;;;;;;;20.47;60.01;101995.55;105987;1295;73459;-85
2023/09/04 19:34:37;;;;;;;;;;;;;;;20.45;60.20;101997.57;106052;1290;67247;-85
2023/09/04 19:37:23;;;;;;;;;;;;;;;20.45;60.04;101997.20;105959;1291;71510;-85
2023/09/04 19:40:10;;;;;;;;;;;;;;;20.43;60.29;101994.64;106041;1291;58991;-85
2023/09/04 19:42:56;;;;;;;;;;;;;;;20.43;60.28;101996.76;106059;1290;59115;-85
2023/09/04 19:45:42;;;;;;;;;;;;;;;20.43;60.36;101998.31;106130;1291;74190;-86
2023/09/04 19:48:28;;;;;;;;;;;;;;;20.43;60.50;101998.48;106116;1291;66953;-85
2023/09/04 19:51:15;;;;;;;;;;;;;;;20.42;60.42;101994.34;106108;1291;71162;-86
2023/09/04 19:54:00;;;;;;;;;;;;;;;20.38;60.59;101994.81;105916;1293;59242;-85
2023/09/04 19:56:47;;;;;;;;;;;;;;;20.37;60.67;101998.00;106162;1291;59060;-85
2023/09/04 19:59:37;;;;;;;;;;;;;;;20.35;60.80;102000.15;106161;1290;74879;-86
2023/09/04 20:02:23;;;;;;;;;;;;;;;20.33;60.78;101998.98;105957;1291;68103;-86
2023/09/04 20:05:10;;;;;;;;;;;;;;;20.32;60.74;102001.14;106065;1290;71304;-85
2023/09/04 20:07:57;;;;;;;;;;;;;;;20.29;60.88;102003.86;105995;1291;60095;-86
2023/09/04 20:10:59;;;;;;;;;;;;;;;20.26;60.80;102002.92;106077;1291;58902;-86
2023/09/04 20:14:05;;;;;;;;;;;;;;;20.24;60.77;101999.70;106149;1291;74038;-86
2023/09/04 20:17:14;;;;;;;;;;;;;;;20.18;60.93;101999.55;106156;1290;67268;-89
2023/09/04 20:20:41;;;;;;;;;;;;;;;20.10;61.02;102001.39;106195;1290;73828;-88
2023/09/04 20:24:08;;;;;;;;;;;;;;;20.03;61.16;102000.06;106226;1291;59278;-89
2023/09/04 20:27:34;;;;;;;;;;;;;;;20.02;61.33;101995.52;105685;1297;60154;-89
2023/09/04 20:31:00;;;;;;;;;;;;;;;20.03;61.30;101996.89;105669;1297;73345;-89
2023/09/04 20:34:27;;;;;;;;;;;;;;;20.00;61.34;101995.95;105729;1297;67321;-89
2023/09/04 20:37:53;;;;;;;;;;;;;;;19.97;61.41;101996.93;105664;1297;71134;-89
2023/09/04 20:41:20;;;;;;;;;;;;;;;19.93;61.39;101994.79;105692;1297;59438;-88
2023/09/04 20:44:46;;;;;;;;;;;;;;;19.89;61.36;101991.94;105667;1297;59332;-88
2023/09/04 20:48:14;;;;;;;;;;;;;;;19.80;61.51;101989.77;105271;1302;73431;-88
2023/09/04 20:51:39;;;;;;;;;;;;;;;19.77;61.63;101985.33;105273;1303;67661;-88
2023/09/04 20:55:05;;;;;;;;;;;;;;;19.73;61.66;101989.16;105265;1302;71273;-89
2023/09/04 20:58:31;;;;;;;;;;;;;;;19.67;61.69;101989.70;104827;1306;59488;-89
2023/09/04 21:01:58;;;;;;;;;;;;;;;19.61;61.76;101992.35;104883;1308;60956;-89
2023/09/04 21:05:24;;;;;;;;;;;;;;;19.52;61.76;101986.34;105124;1303;73332;-90
2023/09/04 23:24:11;;;;;;;;;;;;;;;17.84;64.18;102020.30;106290;1291;68618;-89
2023/09/04 23:27:36;;;;;;;;;;;;;;;17.88;64.20;102025.98;106318;1291;71595;-89
2023/09/04 23:46:08;;;;;;;;;;;;;;;17.87;64.49;102011.16;105865;1295;58904;-88